sensor_id;sensor_type;location;lat;lon;timestamp;P1;durP1;ratioP1;P2;durP2;ratioP2
9138;SDS011;4604;48.616;9.548;2023-09-07T00:01:14;4.05;;;3.65;;
9138;SDS011;4604;48.616;9.548;2023-09-07T00:03:41;3.42;;;3.13;;
9138;SDS011;4604;48.616;9.548;2023-09-07T00:06:07;5.78;;;3.65;;
9138;SDS011;4604;48.616;9.548;2023-09-07T00:08:34;5.97;;;3.30;;
9138;SDS011;4604;48.616;9.548;2023-09-07T00:11:04;4.10;;;3.42;;
9138;SDS011;4604;48.616;9.548;2023-09-07T00:13:30;4.28;;;3.20;;
9138;SDS011;4604;48.616;9.548;2023-09-07T00:15:59;3.58;;;3.20;;
9138;SDS011;4604;48.616;9.548;2023-09-07T00:18:26;7.13;;;3.50;;
9138;SDS011;4604;48.616;9.548;2023-09-07T00:20:53;4.13;;;3.40;;
9138;SDS011;4604;48.616;9.548;2023-09-07T00:23:19;3.83;;;3.20;;
9138;SDS011;4604;48.616;9.548;2023-09-07T00:25:46;3.28;;;2.90;;
9138;SDS011;4604;48.616;9.548;2023-09-07T00:28:13;4.38;;;3.60;;
9138;SDS011;4604;48.616;9.548;2023-09-07T00:30:40;4.57;;;3.45;;
9138;SDS011;4604;48.616;9.548;2023-09-07T00:33:08;4.55;;;3.40;;
9138;SDS011;4604;48.616;9.548;2023-09-07T00:35:35;4.60;;;3.45;;
9138;SDS011;4604;48.616;9.548;2023-09-07T00:38:01;5.13;;;3.58;;
9138;SDS011;4604;48.616;9.548;2023-09-07T00:40:28;4.25;;;3.60;;
9138;SDS011;4604;48.616;9.548;2023-09-07T00:42:56;3.92;;;3.40;;
9138;SDS011;4604;48.616;9.548;2023-09-07T00:45:22;5.75;;;3.78;;
9138;SDS011;4604;48.616;9.548;2023-09-07T00:47:49;3.80;;;3.25;;
9138;SDS011;4604;48.616;9.548;2023-09-07T00:50:17;3.95;;;3.47;;
9138;SDS011;4604;48.616;9.548;2023-09-07T00:52:44;3.47;;;3.10;;
9138;SDS011;4604;48.616;9.548;2023-09-07T00:55:12;4.72;;;3.40;;
9138;SDS011;4604;48.616;9.548;2023-09-07T00:57:39;3.95;;;3.42;;
9138;SDS011;4604;48.616;9.548;2023-09-07T01:00:08;6.95;;;4.10;;
9138;SDS011;4604;48.616;9.548;2023-09-07T01:02:35;3.92;;;3.47;;
9138;SDS011;4604;48.616;9.548;2023-09-07T01:05:02;5.35;;;3.80;;
9138;SDS011;4604;48.616;9.548;2023-09-07T01:07:35;3.83;;;3.42;;
9138;SDS011;4604;48.616;9.548;2023-09-07T01:10:04;4.30;;;3.80;;
9138;SDS011;4604;48.616;9.548;2023-09-07T01:12:32;5.25;;;4.32;;
9138;SDS011;4604;48.616;9.548;2023-09-07T01:14:59;8.07;;;4.07;;
9138;SDS011;4604;48.616;9.548;2023-09-07T01:17:26;7.50;;;3.80;;
9138;SDS011;4604;48.616;9.548;2023-09-07T01:19:54;4.15;;;3.75;;
9138;SDS011;4604;48.616;9.548;2023-09-07T01:22:25;4.15;;;3.67;;
9138;SDS011;4604;48.616;9.548;2023-09-07T01:24:52;7.43;;;3.70;;
9138;SDS011;4604;48.616;9.548;2023-09-07T01:27:20;6.85;;;3.80;;
9138;SDS011;4604;48.616;9.548;2023-09-07T01:29:46;5.05;;;3.88;;
9138;SDS011;4604;48.616;9.548;2023-09-07T01:32:13;5.53;;;3.88;;
9138;SDS011;4604;48.616;9.548;2023-09-07T01:34:40;5.25;;;3.72;;
9138;SDS011;4604;48.616;9.548;2023-09-07T01:37:06;3.97;;;3.42;;
9138;SDS011;4604;48.616;9.548;2023-09-07T01:39:34;5.05;;;3.88;;
9138;SDS011;4604;48.616;9.548;2023-09-07T01:42:01;4.47;;;3.40;;
9138;SDS011;4604;48.616;9.548;2023-09-07T01:44:27;5.93;;;4.10;;
9138;SDS011;4604;48.616;9.548;2023-09-07T01:46:55;5.80;;;3.92;;
9138;SDS011;4604;48.616;9.548;2023-09-07T01:49:21;7.55;;;3.97;;
9138;SDS011;4604;48.616;9.548;2023-09-07T01:51:50;5.28;;;3.70;;
9138;SDS011;4604;48.616;9.548;2023-09-07T01:54:17;4.55;;;3.67;;
9138;SDS011;4604;48.616;9.548;2023-09-07T01:56:45;4.75;;;4.18;;
9138;SDS011;4604;48.616;9.548;2023-09-07T01:59:12;5.47;;;4.30;;
9138;SDS011;4604;48.616;9.548;2023-09-07T02:01:38;4.95;;;3.90;;
9138;SDS011;4604;48.616;9.548;2023-09-07T02:04:05;7.70;;;4.35;;
9138;SDS011;4604;48.616;9.548;2023-09-07T02:06:32;4.63;;;3.90;;
9138;SDS011;4604;48.616;9.548;2023-09-07T02:08:59;4.73;;;3.90;;
9138;SDS011;4604;48.616;9.548;2023-09-07T02:11:25;4.93;;;4.13;;
9138;SDS011;4604;48.616;9.548;2023-09-07T02:13:53;5.07;;;4.03;;
9138;SDS011;4604;48.616;9.548;2023-09-07T02:16:20;4.90;;;3.70;;
9138;SDS011;4604;48.616;9.548;2023-09-07T02:18:48;3.47;;;3.17;;
9138;SDS011;4604;48.616;9.548;2023-09-07T02:21:15;4.45;;;3.72;;
9138;SDS011;4604;48.616;9.548;2023-09-07T02:23:42;6.22;;;3.83;;
9138;SDS011;4604;48.616;9.548;2023-09-07T02:26:09;5.13;;;4.00;;
9138;SDS011;4604;48.616;9.548;2023-09-07T02:28:35;4.72;;;3.65;;
9138;SDS011;4604;48.616;9.548;2023-09-07T02:31:03;7.18;;;3.90;;
9138;SDS011;4604;48.616;9.548;2023-09-07T02:33:31;5.72;;;4.25;;
9138;SDS011;4604;48.616;9.548;2023-09-07T02:35:58;6.57;;;4.25;;
9138;SDS011;4604;48.616;9.548;2023-09-07T02:38:24;4.80;;;3.63;;
9138;SDS011;4604;48.616;9.548;2023-09-07T02:40:51;5.30;;;4.30;;
9138;SDS011;4604;48.616;9.548;2023-09-07T02:43:18;4.75;;;4.00;;
9138;SDS011;4604;48.616;9.548;2023-09-07T02:45:44;5.07;;;4.30;;
9138;SDS011;4604;48.616;9.548;2023-09-07T02:48:12;8.30;;;4.43;;
9138;SDS011;4604;48.616;9.548;2023-09-07T02:50:39;4.93;;;4.15;;
9138;SDS011;4604;48.616;9.548;2023-09-07T02:53:05;5.35;;;4.38;;
9138;SDS011;4604;48.616;9.548;2023-09-07T02:55:32;8.32;;;3.90;;
9138;SDS011;4604;48.616;9.548;2023-09-07T02:58:02;4.80;;;4.18;;
9138;SDS011;4604;48.616;9.548;2023-09-07T03:00:29;5.57;;;4.47;;
9138;SDS011;4604;48.616;9.548;2023-09-07T03:02:55;7.00;;;4.07;;
9138;SDS011;4604;48.616;9.548;2023-09-07T03:05:26;4.10;;;3.63;;
9138;SDS011;4604;48.616;9.548;2023-09-07T03:07:53;4.72;;;4.20;;
9138;SDS011;4604;48.616;9.548;2023-09-07T03:10:20;5.15;;;4.13;;
9138;SDS011;4604;48.616;9.548;2023-09-07T03:12:46;7.30;;;5.20;;
9138;SDS011;4604;48.616;9.548;2023-09-07T03:15:13;5.32;;;4.63;;
9138;SDS011;4604;48.616;9.548;2023-09-07T03:17:39;5.25;;;4.20;;
9138;SDS011;4604;48.616;9.548;2023-09-07T03:20:06;6.18;;;4.20;;
9138;SDS011;4604;48.616;9.548;2023-09-07T03:22:41;8.30;;;4.07;;
9138;SDS011;4604;48.616;9.548;2023-09-07T03:25:08;6.68;;;4.88;;
9138;SDS011;4604;48.616;9.548;2023-09-07T03:27:35;8.40;;;6.18;;
9138;SDS011;4604;48.616;9.548;2023-09-07T03:30:02;6.82;;;4.95;;
9138;SDS011;4604;48.616;9.548;2023-09-07T03:32:30;7.87;;;5.23;;
9138;SDS011;4604;48.616;9.548;2023-09-07T03:34:58;6.13;;;4.68;;
9138;SDS011;4604;48.616;9.548;2023-09-07T03:37:25;8.07;;;5.20;;
9138;SDS011;4604;48.616;9.548;2023-09-07T03:39:53;5.75;;;4.60;;
9138;SDS011;4604;48.616;9.548;2023-09-07T03:42:20;5.35;;;4.07;;
9138;SDS011;4604;48.616;9.548;2023-09-07T03:44:47;5.28;;;4.40;;
9138;SDS011;4604;48.616;9.548;2023-09-07T03:47:14;5.90;;;4.50;;
9138;SDS011;4604;48.616;9.548;2023-09-07T03:49:41;6.95;;;5.30;;
9138;SDS011;4604;48.616;9.548;2023-09-07T03:52:09;6.78;;;5.07;;
9138;SDS011;4604;48.616;9.548;2023-09-07T03:54:36;7.23;;;5.10;;
9138;SDS011;4604;48.616;9.548;2023-09-07T03:57:04;7.53;;;5.60;;
9138;SDS011;4604;48.616;9.548;2023-09-07T03:59:31;5.35;;;4.40;;
9138;SDS011;4604;48.616;9.548;2023-09-07T04:01:57;9.25;;;5.13;;
9138;SDS011;4604;48.616;9.548;2023-09-07T04:04:24;6.23;;;5.13;;
9138;SDS011;4604;48.616;9.548;2023-09-07T04:06:51;7.53;;;5.57;;
9138;SDS011;4604;48.616;9.548;2023-09-07T04:09:17;7.43;;;5.28;;
9138;SDS011;4604;48.616;9.548;2023-09-07T04:11:44;7.07;;;5.32;;
9138;SDS011;4604;48.616;9.548;2023-09-07T04:14:12;8.10;;;5.03;;
9138;SDS011;4604;48.616;9.548;2023-09-07T04:16:38;8.77;;;5.70;;
9138;SDS011;4604;48.616;9.548;2023-09-07T04:19:05;6.30;;;5.03;;
9138;SDS011;4604;48.616;9.548;2023-09-07T04:21:32;8.30;;;4.90;;
9138;SDS011;4604;48.616;9.548;2023-09-07T04:23:58;8.60;;;5.60;;
9138;SDS011;4604;48.616;9.548;2023-09-07T04:26:25;7.97;;;5.65;;
9138;SDS011;4604;48.616;9.548;2023-09-07T04:28:52;8.17;;;6.33;;
9138;SDS011;4604;48.616;9.548;2023-09-07T04:31:19;8.45;;;6.82;;
9138;SDS011;4604;48.616;9.548;2023-09-07T04:33:46;7.65;;;6.25;;
9138;SDS011;4604;48.616;9.548;2023-09-07T04:36:14;7.00;;;5.70;;
9138;SDS011;4604;48.616;9.548;2023-09-07T04:38:41;6.90;;;5.22;;
9138;SDS011;4604;48.616;9.548;2023-09-07T04:41:08;7.43;;;6.22;;
9138;SDS011;4604;48.616;9.548;2023-09-07T04:43:35;7.63;;;5.93;;
9138;SDS011;4604;48.616;9.548;2023-09-07T04:46:02;9.93;;;6.05;;
9138;SDS011;4604;48.616;9.548;2023-09-07T04:48:30;9.17;;;5.83;;
9138;SDS011;4604;48.616;9.548;2023-09-07T04:50:57;6.90;;;5.50;;
9138;SDS011;4604;48.616;9.548;2023-09-07T04:53:24;8.00;;;5.75;;
9138;SDS011;4604;48.616;9.548;2023-09-07T04:55:51;8.30;;;6.70;;
9138;SDS011;4604;48.616;9.548;2023-09-07T04:58:17;8.05;;;6.25;;
9138;SDS011;4604;48.616;9.548;2023-09-07T05:00:44;7.75;;;6.63;;
9138;SDS011;4604;48.616;9.548;2023-09-07T05:03:11;12.50;;;8.05;;
9138;SDS011;4604;48.616;9.548;2023-09-07T05:05:39;9.32;;;7.07;;
9138;SDS011;4604;48.616;9.548;2023-09-07T05:08:07;10.75;;;7.97;;
9138;SDS011;4604;48.616;9.548;2023-09-07T05:10:33;12.32;;;7.55;;
9138;SDS011;4604;48.616;9.548;2023-09-07T05:13:00;8.90;;;6.88;;
9138;SDS011;4604;48.616;9.548;2023-09-07T05:15:27;8.32;;;6.90;;
9138;SDS011;4604;48.616;9.548;2023-09-07T05:17:54;8.82;;;6.78;;
9138;SDS011;4604;48.616;9.548;2023-09-07T05:20:21;8.23;;;5.60;;
9138;SDS011;4604;48.616;9.548;2023-09-07T05:22:49;8.90;;;6.73;;
9138;SDS011;4604;48.616;9.548;2023-09-07T05:25:16;8.88;;;7.18;;
9138;SDS011;4604;48.616;9.548;2023-09-07T05:27:44;10.95;;;7.28;;
9138;SDS011;4604;48.616;9.548;2023-09-07T05:30:11;10.82;;;6.47;;
9138;SDS011;4604;48.616;9.548;2023-09-07T05:32:38;7.97;;;5.90;;
9138;SDS011;4604;48.616;9.548;2023-09-07T05:35:04;6.30;;;5.20;;
9138;SDS011;4604;48.616;9.548;2023-09-07T05:37:31;11.80;;;6.38;;
9138;SDS011;4604;48.616;9.548;2023-09-07T05:39:59;8.98;;;6.72;;
9138;SDS011;4604;48.616;9.548;2023-09-07T05:42:26;8.03;;;6.63;;
9138;SDS011;4604;48.616;9.548;2023-09-07T05:44:52;8.95;;;6.15;;
9138;SDS011;4604;48.616;9.548;2023-09-07T05:47:19;7.65;;;6.00;;
9138;SDS011;4604;48.616;9.548;2023-09-07T05:49:46;9.25;;;6.82;;
9138;SDS011;4604;48.616;9.548;2023-09-07T05:52:12;9.98;;;6.53;;
9138;SDS011;4604;48.616;9.548;2023-09-07T05:54:39;8.95;;;5.90;;
9138;SDS011;4604;48.616;9.548;2023-09-07T05:57:07;8.02;;;6.07;;
9138;SDS011;4604;48.616;9.548;2023-09-07T05:59:33;7.38;;;6.22;;
9138;SDS011;4604;48.616;9.548;2023-09-07T06:01:59;8.60;;;6.47;;
9138;SDS011;4604;48.616;9.548;2023-09-07T06:04:26;7.43;;;6.35;;
9138;SDS011;4604;48.616;9.548;2023-09-07T06:06:52;9.82;;;6.22;;
9138;SDS011;4604;48.616;9.548;2023-09-07T06:09:19;9.82;;;5.47;;
9138;SDS011;4604;48.616;9.548;2023-09-07T06:11:45;8.75;;;6.80;;
9138;SDS011;4604;48.616;9.548;2023-09-07T06:14:14;9.48;;;6.57;;
9138;SDS011;4604;48.616;9.548;2023-09-07T06:16:40;8.35;;;6.15;;
9138;SDS011;4604;48.616;9.548;2023-09-07T06:19:07;8.38;;;6.35;;
9138;SDS011;4604;48.616;9.548;2023-09-07T06:21:33;7.55;;;5.70;;
9138;SDS011;4604;48.616;9.548;2023-09-07T06:24:00;7.50;;;5.95;;
9138;SDS011;4604;48.616;9.548;2023-09-07T06:26:26;6.95;;;5.28;;
9138;SDS011;4604;48.616;9.548;2023-09-07T06:28:53;9.05;;;6.20;;
9138;SDS011;4604;48.616;9.548;2023-09-07T06:31:21;8.52;;;6.30;;
9138;SDS011;4604;48.616;9.548;2023-09-07T06:33:47;6.82;;;5.30;;
9138;SDS011;4604;48.616;9.548;2023-09-07T06:36:14;6.05;;;5.43;;
9138;SDS011;4604;48.616;9.548;2023-09-07T06:38:41;5.72;;;5.13;;
9138;SDS011;4604;48.616;9.548;2023-09-07T06:41:07;7.07;;;5.03;;
9138;SDS011;4604;48.616;9.548;2023-09-07T06:43:34;6.97;;;5.80;;
9138;SDS011;4604;48.616;9.548;2023-09-07T06:46:02;7.65;;;5.05;;
9138;SDS011;4604;48.616;9.548;2023-09-07T06:48:31;7.78;;;5.75;;
9138;SDS011;4604;48.616;9.548;2023-09-07T06:51:00;7.03;;;5.50;;
9138;SDS011;4604;48.616;9.548;2023-09-07T06:53:28;10.55;;;7.88;;
9138;SDS011;4604;48.616;9.548;2023-09-07T06:55:57;15.48;;;11.00;;
9138;SDS011;4604;48.616;9.548;2023-09-07T06:58:23;13.80;;;9.55;;
9138;SDS011;4604;48.616;9.548;2023-09-07T07:00:52;27.23;;;15.63;;
9138;SDS011;4604;48.616;9.548;2023-09-07T07:03:19;21.27;;;14.02;;
9138;SDS011;4604;48.616;9.548;2023-09-07T07:05:47;16.63;;;12.00;;
9138;SDS011;4604;48.616;9.548;2023-09-07T07:08:14;15.35;;;9.77;;
9138;SDS011;4604;48.616;9.548;2023-09-07T07:10:40;14.30;;;9.88;;
9138;SDS011;4604;48.616;9.548;2023-09-07T07:13:08;17.90;;;10.80;;
9138;SDS011;4604;48.616;9.548;2023-09-07T07:15:35;28.33;;;12.20;;
9138;SDS011;4604;48.616;9.548;2023-09-07T07:18:01;19.10;;;11.80;;
9138;SDS011;4604;48.616;9.548;2023-09-07T07:20:33;19.35;;;10.27;;
9138;SDS011;4604;48.616;9.548;2023-09-07T07:23:01;13.77;;;8.98;;
9138;SDS011;4604;48.616;9.548;2023-09-07T07:25:27;11.25;;;8.20;;
9138;SDS011;4604;48.616;9.548;2023-09-07T07:27:56;12.20;;;8.10;;
9138;SDS011;4604;48.616;9.548;2023-09-07T07:30:23;13.13;;;7.82;;
9138;SDS011;4604;48.616;9.548;2023-09-07T07:32:52;11.07;;;7.30;;
9138;SDS011;4604;48.616;9.548;2023-09-07T07:35:19;13.02;;;8.18;;
9138;SDS011;4604;48.616;9.548;2023-09-07T07:37:45;11.40;;;7.93;;
9138;SDS011;4604;48.616;9.548;2023-09-07T07:40:13;9.90;;;7.35;;
9138;SDS011;4604;48.616;9.548;2023-09-07T07:42:40;10.32;;;7.70;;
9138;SDS011;4604;48.616;9.548;2023-09-07T07:45:07;9.73;;;7.72;;
9138;SDS011;4604;48.616;9.548;2023-09-07T07:47:35;9.68;;;7.00;;
9138;SDS011;4604;48.616;9.548;2023-09-07T07:50:01;11.15;;;7.05;;
9138;SDS011;4604;48.616;9.548;2023-09-07T07:52:28;8.57;;;6.78;;
9138;SDS011;4604;48.616;9.548;2023-09-07T07:54:54;8.63;;;7.45;;
9138;SDS011;4604;48.616;9.548;2023-09-07T07:57:22;10.38;;;7.22;;
9138;SDS011;4604;48.616;9.548;2023-09-07T07:59:49;10.75;;;6.57;;
9138;SDS011;4604;48.616;9.548;2023-09-07T08:02:15;11.20;;;7.03;;
9138;SDS011;4604;48.616;9.548;2023-09-07T08:04:42;6.93;;;5.70;;
9138;SDS011;4604;48.616;9.548;2023-09-07T08:07:09;12.02;;;7.03;;
9138;SDS011;4604;48.616;9.548;2023-09-07T08:09:36;11.85;;;6.93;;
9138;SDS011;4604;48.616;9.548;2023-09-07T08:12:03;11.18;;;7.07;;
9138;SDS011;4604;48.616;9.548;2023-09-07T08:14:32;8.90;;;6.15;;
9138;SDS011;4604;48.616;9.548;2023-09-07T08:16:58;7.07;;;5.90;;
9138;SDS011;4604;48.616;9.548;2023-09-07T08:19:29;7.50;;;6.32;;
9138;SDS011;4604;48.616;9.548;2023-09-07T08:21:56;8.20;;;6.90;;
9138;SDS011;4604;48.616;9.548;2023-09-07T08:24:23;8.05;;;6.20;;
9138;SDS011;4604;48.616;9.548;2023-09-07T08:26:49;11.02;;;6.68;;
9138;SDS011;4604;48.616;9.548;2023-09-07T08:29:19;14.93;;;6.15;;
9138;SDS011;4604;48.616;9.548;2023-09-07T08:31:47;6.88;;;5.93;;
9138;SDS011;4604;48.616;9.548;2023-09-07T08:34:16;8.35;;;5.90;;
9138;SDS011;4604;48.616;9.548;2023-09-07T08:36:44;6.75;;;5.43;;
9138;SDS011;4604;48.616;9.548;2023-09-07T08:39:12;8.90;;;5.70;;
9138;SDS011;4604;48.616;9.548;2023-09-07T08:41:39;5.38;;;4.88;;
9138;SDS011;4604;48.616;9.548;2023-09-07T08:44:08;6.30;;;5.18;;
9138;SDS011;4604;48.616;9.548;2023-09-07T08:46:36;6.40;;;5.32;;
9138;SDS011;4604;48.616;9.548;2023-09-07T08:49:04;7.38;;;5.13;;
9138;SDS011;4604;48.616;9.548;2023-09-07T08:51:31;6.22;;;5.63;;
9138;SDS011;4604;48.616;9.548;2023-09-07T08:53:58;7.10;;;5.70;;
9138;SDS011;4604;48.616;9.548;2023-09-07T08:56:24;8.75;;;5.85;;
9138;SDS011;4604;48.616;9.548;2023-09-07T08:58:51;7.47;;;5.68;;
9138;SDS011;4604;48.616;9.548;2023-09-07T09:01:18;5.50;;;5.00;;
9138;SDS011;4604;48.616;9.548;2023-09-07T09:03:46;5.95;;;5.35;;
9138;SDS011;4604;48.616;9.548;2023-09-07T09:06:16;6.05;;;5.40;;
9138;SDS011;4604;48.616;9.548;2023-09-07T09:08:45;6.25;;;5.25;;
9138;SDS011;4604;48.616;9.548;2023-09-07T09:11:14;7.72;;;5.68;;
9138;SDS011;4604;48.616;9.548;2023-09-07T09:13:41;7.20;;;5.65;;
9138;SDS011;4604;48.616;9.548;2023-09-07T09:16:08;8.50;;;5.25;;
9138;SDS011;4604;48.616;9.548;2023-09-07T09:18:35;8.38;;;5.38;;
9138;SDS011;4604;48.616;9.548;2023-09-07T09:21:01;11.93;;;6.13;;
9138;SDS011;4604;48.616;9.548;2023-09-07T09:23:31;6.30;;;5.47;;
9138;SDS011;4604;48.616;9.548;2023-09-07T09:25:59;6.30;;;5.45;;
9138;SDS011;4604;48.616;9.548;2023-09-07T09:28:26;6.15;;;5.55;;
9138;SDS011;4604;48.616;9.548;2023-09-07T09:30:52;8.10;;;6.20;;
9138;SDS011;4604;48.616;9.548;2023-09-07T09:33:19;8.02;;;5.93;;
9138;SDS011;4604;48.616;9.548;2023-09-07T09:35:46;7.40;;;6.10;;
9138;SDS011;4604;48.616;9.548;2023-09-07T09:38:13;6.95;;;6.25;;
9138;SDS011;4604;48.616;9.548;2023-09-07T09:40:42;9.35;;;5.85;;
9138;SDS011;4604;48.616;9.548;2023-09-07T09:43:08;6.95;;;6.25;;
9138;SDS011;4604;48.616;9.548;2023-09-07T09:45:36;15.25;;;6.03;;
9138;SDS011;4604;48.616;9.548;2023-09-07T09:48:04;9.50;;;5.50;;
9138;SDS011;4604;48.616;9.548;2023-09-07T09:50:32;6.70;;;5.53;;
9138;SDS011;4604;48.616;9.548;2023-09-07T09:53:02;9.43;;;6.13;;
9138;SDS011;4604;48.616;9.548;2023-09-07T09:55:31;7.35;;;6.45;;
9138;SDS011;4604;48.616;9.548;2023-09-07T09:57:59;6.75;;;6.07;;
9138;SDS011;4604;48.616;9.548;2023-09-07T10:00:26;7.68;;;5.80;;
9138;SDS011;4604;48.616;9.548;2023-09-07T10:03:00;9.23;;;6.88;;
9138;SDS011;4604;48.616;9.548;2023-09-07T10:05:31;7.50;;;6.65;;
9138;SDS011;4604;48.616;9.548;2023-09-07T10:08:02;8.23;;;5.60;;
9138;SDS011;4604;48.616;9.548;2023-09-07T10:10:33;7.80;;;5.78;;
9138;SDS011;4604;48.616;9.548;2023-09-07T10:13:03;9.18;;;6.03;;
9138;SDS011;4604;48.616;9.548;2023-09-07T10:15:30;6.55;;;5.50;;
9138;SDS011;4604;48.616;9.548;2023-09-07T10:18:04;6.80;;;5.93;;
9138;SDS011;4604;48.616;9.548;2023-09-07T10:20:46;7.07;;;5.00;;
9138;SDS011;4604;48.616;9.548;2023-09-07T10:23:20;7.32;;;5.40;;
9138;SDS011;4604;48.616;9.548;2023-09-07T10:25:48;6.70;;;5.43;;
9138;SDS011;4604;48.616;9.548;2023-09-07T10:28:21;6.18;;;5.20;;
9138;SDS011;4604;48.616;9.548;2023-09-07T10:31:04;6.55;;;5.88;;
9138;SDS011;4604;48.616;9.548;2023-09-07T10:33:32;12.98;;;6.10;;
9138;SDS011;4604;48.616;9.548;2023-09-07T10:36:00;6.35;;;5.72;;
9138;SDS011;4604;48.616;9.548;2023-09-07T10:38:28;12.15;;;6.00;;
9138;SDS011;4604;48.616;9.548;2023-09-07T10:40:57;6.78;;;5.75;;
9138;SDS011;4604;48.616;9.548;2023-09-07T10:43:27;6.65;;;5.63;;
9138;SDS011;4604;48.616;9.548;2023-09-07T10:45:54;6.25;;;5.30;;
9138;SDS011;4604;48.616;9.548;2023-09-07T10:48:21;9.68;;;5.55;;
9138;SDS011;4604;48.616;9.548;2023-09-07T10:50:48;6.57;;;5.88;;
9138;SDS011;4604;48.616;9.548;2023-09-07T10:53:23;7.43;;;5.82;;
9138;SDS011;4604;48.616;9.548;2023-09-07T10:55:52;7.22;;;5.70;;
9138;SDS011;4604;48.616;9.548;2023-09-07T10:58:28;7.15;;;6.03;;
9138;SDS011;4604;48.616;9.548;2023-09-07T11:00:57;9.68;;;5.30;;
9138;SDS011;4604;48.616;9.548;2023-09-07T11:03:26;6.15;;;5.55;;
9138;SDS011;4604;48.616;9.548;2023-09-07T11:05:53;5.75;;;5.15;;
9138;SDS011;4604;48.616;9.548;2023-09-07T11:08:25;5.55;;;4.88;;
9138;SDS011;4604;48.616;9.548;2023-09-07T11:10:53;5.75;;;5.15;;
9138;SDS011;4604;48.616;9.548;2023-09-07T11:13:19;6.88;;;5.50;;
9138;SDS011;4604;48.616;9.548;2023-09-07T11:15:49;6.82;;;4.95;;
9138;SDS011;4604;48.616;9.548;2023-09-07T11:18:19;6.20;;;5.60;;
9138;SDS011;4604;48.616;9.548;2023-09-07T11:20:46;7.40;;;5.20;;
9138;SDS011;4604;48.616;9.548;2023-09-07T11:23:13;5.93;;;5.18;;
9138;SDS011;4604;48.616;9.548;2023-09-07T11:25:39;6.30;;;5.30;;
9138;SDS011;4604;48.616;9.548;2023-09-07T11:28:09;6.20;;;5.35;;
9138;SDS011;4604;48.616;9.548;2023-09-07T11:30:36;5.60;;;5.10;;
9138;SDS011;4604;48.616;9.548;2023-09-07T11:33:05;6.25;;;5.40;;
9138;SDS011;4604;48.616;9.548;2023-09-07T11:35:33;5.45;;;4.88;;
9138;SDS011;4604;48.616;9.548;2023-09-07T11:38:00;5.60;;;5.07;;
9138;SDS011;4604;48.616;9.548;2023-09-07T11:40:29;6.07;;;5.13;;
9138;SDS011;4604;48.616;9.548;2023-09-07T11:42:55;7.45;;;5.03;;
9138;SDS011;4604;48.616;9.548;2023-09-07T11:45:22;5.20;;;4.70;;
9138;SDS011;4604;48.616;9.548;2023-09-07T11:47:48;6.72;;;5.10;;
9138;SDS011;4604;48.616;9.548;2023-09-07T11:50:17;5.80;;;5.18;;
9138;SDS011;4604;48.616;9.548;2023-09-07T11:52:44;5.72;;;4.90;;
9138;SDS011;4604;48.616;9.548;2023-09-07T11:55:10;7.32;;;4.85;;
9138;SDS011;4604;48.616;9.548;2023-09-07T11:57:37;6.43;;;4.75;;
9138;SDS011;4604;48.616;9.548;2023-09-07T12:00:04;6.65;;;4.80;;
9138;SDS011;4604;48.616;9.548;2023-09-07T12:02:35;6.25;;;4.65;;
9138;SDS011;4604;48.616;9.548;2023-09-07T12:05:02;8.25;;;5.40;;
9138;SDS011;4604;48.616;9.548;2023-09-07T12:07:34;6.28;;;5.07;;
9138;SDS011;4604;48.616;9.548;2023-09-07T12:10:01;5.40;;;4.75;;
9138;SDS011;4604;48.616;9.548;2023-09-07T12:12:27;9.60;;;4.40;;
9138;SDS011;4604;48.616;9.548;2023-09-07T12:14:54;6.10;;;5.03;;
9138;SDS011;4604;48.616;9.548;2023-09-07T12:17:21;5.30;;;4.80;;
9138;SDS011;4604;48.616;9.548;2023-09-07T12:19:50;5.38;;;4.43;;
9138;SDS011;4604;48.616;9.548;2023-09-07T12:22:17;5.47;;;4.85;;
9138;SDS011;4604;48.616;9.548;2023-09-07T12:24:45;4.60;;;4.20;;
9138;SDS011;4604;48.616;9.548;2023-09-07T12:27:12;5.00;;;4.50;;
9138;SDS011;4604;48.616;9.548;2023-09-07T12:29:39;6.50;;;4.97;;
9138;SDS011;4604;48.616;9.548;2023-09-07T12:32:05;6.13;;;4.55;;
9138;SDS011;4604;48.616;9.548;2023-09-07T12:34:32;5.28;;;4.43;;
9138;SDS011;4604;48.616;9.548;2023-09-07T12:36:58;5.53;;;4.82;;
9138;SDS011;4604;48.616;9.548;2023-09-07T12:39:25;6.10;;;4.60;;
9138;SDS011;4604;48.616;9.548;2023-09-07T12:41:56;5.30;;;4.80;;
9138;SDS011;4604;48.616;9.548;2023-09-07T12:44:22;6.03;;;4.90;;
9138;SDS011;4604;48.616;9.548;2023-09-07T12:46:49;5.07;;;4.45;;
9138;SDS011;4604;48.616;9.548;2023-09-07T12:49:15;8.30;;;4.47;;
9138;SDS011;4604;48.616;9.548;2023-09-07T12:51:42;6.05;;;4.88;;
9138;SDS011;4604;48.616;9.548;2023-09-07T12:54:09;6.22;;;4.97;;
9138;SDS011;4604;48.616;9.548;2023-09-07T12:56:35;5.22;;;4.32;;
9138;SDS011;4604;48.616;9.548;2023-09-07T12:59:03;4.32;;;3.85;;
9138;SDS011;4604;48.616;9.548;2023-09-07T13:01:30;6.93;;;4.30;;
9138;SDS011;4604;48.616;9.548;2023-09-07T13:03:57;6.95;;;4.05;;
9138;SDS011;4604;48.616;9.548;2023-09-07T13:06:26;6.70;;;4.50;;
9138;SDS011;4604;48.616;9.548;2023-09-07T13:08:52;6.38;;;4.50;;
9138;SDS011;4604;48.616;9.548;2023-09-07T13:11:19;4.65;;;4.25;;
9138;SDS011;4604;48.616;9.548;2023-09-07T13:13:45;5.68;;;4.25;;
9138;SDS011;4604;48.616;9.548;2023-09-07T13:16:14;5.93;;;4.35;;
9138;SDS011;4604;48.616;9.548;2023-09-07T13:18:40;4.63;;;4.22;;
9138;SDS011;4604;48.616;9.548;2023-09-07T13:21:09;5.18;;;4.68;;
9138;SDS011;4604;48.616;9.548;2023-09-07T13:23:35;5.97;;;4.28;;
9138;SDS011;4604;48.616;9.548;2023-09-07T13:26:02;6.85;;;4.78;;
9138;SDS011;4604;48.616;9.548;2023-09-07T13:28:29;4.88;;;4.03;;
9138;SDS011;4604;48.616;9.548;2023-09-07T13:30:55;5.65;;;4.30;;
9138;SDS011;4604;48.616;9.548;2023-09-07T13:33:23;6.32;;;4.20;;
9138;SDS011;4604;48.616;9.548;2023-09-07T13:35:50;5.00;;;4.50;;
9138;SDS011;4604;48.616;9.548;2023-09-07T13:38:17;5.50;;;4.85;;
9138;SDS011;4604;48.616;9.548;2023-09-07T13:40:43;5.78;;;4.22;;
9138;SDS011;4604;48.616;9.548;2023-09-07T13:43:10;4.43;;;4.03;;
9138;SDS011;4604;48.616;9.548;2023-09-07T13:45:36;5.28;;;4.78;;
9138;SDS011;4604;48.616;9.548;2023-09-07T13:48:03;4.55;;;4.15;;
9138;SDS011;4604;48.616;9.548;2023-09-07T13:50:32;6.72;;;5.30;;
9138;SDS011;4604;48.616;9.548;2023-09-07T13:52:58;5.68;;;4.50;;
9138;SDS011;4604;48.616;9.548;2023-09-07T13:55:25;5.43;;;4.35;;
9138;SDS011;4604;48.616;9.548;2023-09-07T13:57:52;5.88;;;4.28;;
9138;SDS011;4604;48.616;9.548;2023-09-07T14:00:18;5.15;;;4.20;;
9138;SDS011;4604;48.616;9.548;2023-09-07T14:02:45;5.15;;;4.65;;
9138;SDS011;4604;48.616;9.548;2023-09-07T14:05:11;4.70;;;4.22;;
9138;SDS011;4604;48.616;9.548;2023-09-07T14:07:39;7.95;;;4.90;;
9138;SDS011;4604;48.616;9.548;2023-09-07T14:10:06;5.30;;;4.55;;
9138;SDS011;4604;48.616;9.548;2023-09-07T14:12:33;8.48;;;4.80;;
9138;SDS011;4604;48.616;9.548;2023-09-07T14:15:00;8.45;;;4.55;;
9138;SDS011;4604;48.616;9.548;2023-09-07T14:17:26;5.80;;;4.63;;
9138;SDS011;4604;48.616;9.548;2023-09-07T14:19:53;7.00;;;4.72;;
9138;SDS011;4604;48.616;9.548;2023-09-07T14:22:19;6.13;;;4.30;;
9138;SDS011;4604;48.616;9.548;2023-09-07T14:24:48;4.90;;;4.47;;
9138;SDS011;4604;48.616;9.548;2023-09-07T14:27:15;5.68;;;4.43;;
9138;SDS011;4604;48.616;9.548;2023-09-07T14:29:41;9.05;;;4.90;;
9138;SDS011;4604;48.616;9.548;2023-09-07T14:32:08;4.90;;;4.40;;
9138;SDS011;4604;48.616;9.548;2023-09-07T14:34:38;7.88;;;4.13;;
9138;SDS011;4604;48.616;9.548;2023-09-07T14:37:04;7.20;;;4.68;;
9138;SDS011;4604;48.616;9.548;2023-09-07T14:39:31;4.90;;;4.40;;
9138;SDS011;4604;48.616;9.548;2023-09-07T14:41:59;4.95;;;4.20;;
9138;SDS011;4604;48.616;9.548;2023-09-07T14:44:26;5.00;;;4.50;;
9138;SDS011;4604;48.616;9.548;2023-09-07T14:46:53;5.30;;;4.50;;
9138;SDS011;4604;48.616;9.548;2023-09-07T14:49:19;4.95;;;4.40;;
9138;SDS011;4604;48.616;9.548;2023-09-07T14:51:46;5.82;;;4.70;;
9138;SDS011;4604;48.616;9.548;2023-09-07T14:54:13;5.28;;;4.03;;
9138;SDS011;4604;48.616;9.548;2023-09-07T14:56:39;4.38;;;3.97;;
9138;SDS011;4604;48.616;9.548;2023-09-07T14:59:07;5.05;;;4.40;;
9138;SDS011;4604;48.616;9.548;2023-09-07T15:01:36;6.43;;;4.50;;
9138;SDS011;4604;48.616;9.548;2023-09-07T15:04:03;5.68;;;4.22;;
9138;SDS011;4604;48.616;9.548;2023-09-07T15:06:30;5.05;;;4.55;;
9138;SDS011;4604;48.616;9.548;2023-09-07T15:08:58;4.93;;;4.43;;
9138;SDS011;4604;48.616;9.548;2023-09-07T15:11:24;5.03;;;4.53;;
9138;SDS011;4604;48.616;9.548;2023-09-07T15:13:51;4.70;;;4.30;;